createdAt,value
2023-01-17T00:02:17.540Z,3.07
2023-01-17T00:05:03.446Z,2.50
2023-01-17T00:07:49.420Z,2.60
2023-01-17T00:10:19.785Z,2.90
2023-01-17T00:12:59.052Z,3.10
2023-01-17T00:15:28.099Z,2.50
2023-01-17T00:17:55.629Z,2.70
2023-01-17T00:20:47.811Z,2.50
2023-01-17T00:23:34.728Z,2.67
2023-01-17T00:26:05.027Z,2.67
2023-01-17T00:28:37.532Z,3.30
2023-01-17T00:31:06.118Z,2.53
2023-01-17T00:33:33.615Z,2.23
2023-01-17T00:36:02.357Z,2.83
2023-01-17T00:38:31.391Z,2.43
2023-01-17T00:41:12.959Z,2.67
2023-01-17T00:43:59.009Z,2.47
2023-01-17T00:46:44.839Z,2.77
2023-01-17T00:49:30.803Z,2.77
2023-01-17T00:52:16.813Z,2.80
2023-01-17T00:55:02.345Z,3.00
2023-01-17T00:57:48.181Z,2.50
2023-01-17T01:00:35.537Z,2.43
2023-01-17T01:03:27.555Z,3.17
2023-01-17T01:06:13.455Z,2.90
2023-01-17T01:08:59.187Z,3.20
2023-01-17T01:11:45.149Z,3.10
2023-01-17T01:14:31.165Z,3.00
2023-01-17T01:17:16.771Z,4.13
2023-01-17T01:20:02.706Z,4.03
2023-01-17T01:22:48.270Z,4.30
2023-01-17T01:25:34.034Z,4.60
2023-01-17T01:28:30.680Z,3.93
2023-01-17T01:31:22.915Z,4.27
2023-01-17T01:33:53.831Z,4.50
2023-01-17T01:36:21.249Z,4.27
2023-01-17T01:38:50.384Z,4.20
2023-01-17T01:41:17.973Z,3.87
2023-01-17T01:43:51.175Z,4.60
2023-01-17T01:46:25.886Z,4.47
2023-01-17T01:48:58.996Z,3.30
2023-01-17T01:51:41.469Z,3.73
2023-01-17T01:54:15.791Z,4.40
2023-01-17T01:56:43.961Z,3.73
2023-01-17T01:59:13.526Z,4.27
2023-01-17T02:01:40.872Z,3.93
2023-01-17T02:04:10.243Z,3.60
2023-01-17T02:06:46.158Z,4.30
2023-01-17T02:09:15.428Z,4.47
2023-01-17T02:11:43.928Z,4.00
2023-01-17T02:14:16.074Z,4.03
2023-01-17T02:17:08.185Z,5.07
2023-01-17T02:19:41.305Z,4.50
2023-01-17T02:22:29.661Z,4.20
2023-01-17T02:25:27.189Z,5.07
2023-01-17T02:28:00.239Z,4.90
2023-01-17T02:30:42.033Z,4.80
2023-01-17T02:33:15.859Z,5.20
2023-01-17T02:35:58.679Z,4.63
2023-01-17T02:38:32.364Z,4.93
2023-01-17T02:41:07.955Z,4.80
2023-01-17T02:43:37.324Z,4.37
2023-01-17T02:46:04.569Z,4.20
2023-01-17T02:48:34.796Z,4.30
2023-01-17T02:51:27.185Z,4.20
2023-01-17T02:54:27.826Z,5.90
2023-01-17T02:57:03.745Z,4.27
2023-01-17T03:00:00.343Z,4.07
2023-01-17T03:02:30.437Z,4.33
2023-01-17T03:05:10.708Z,4.17
2023-01-17T03:07:40.083Z,4.20
2023-01-17T03:10:08.388Z,4.00
2023-01-17T03:12:38.353Z,4.00
2023-01-17T03:15:14.698Z,4.00
2023-01-17T03:17:47.443Z,3.70
2023-01-17T03:20:14.751Z,3.53
2023-01-17T03:22:41.881Z,3.60
2023-01-17T03:25:09.275Z,3.17
2023-01-17T03:27:36.324Z,3.57
2023-01-17T03:30:04.811Z,3.40
2023-01-17T03:32:31.888Z,3.37
2023-01-17T03:34:58.969Z,3.27
2023-01-17T03:37:26.295Z,2.93
2023-01-17T03:39:53.421Z,3.47
2023-01-17T03:42:20.691Z,3.23
2023-01-17T03:44:47.779Z,3.73
2023-01-17T03:47:14.925Z,3.40
2023-01-17T03:49:42.296Z,3.07
2023-01-17T03:52:09.454Z,3.37
2023-01-17T03:54:36.729Z,3.33
2023-01-17T03:57:04.068Z,3.40
2023-01-17T03:59:33.364Z,3.90
2023-01-17T04:02:01.100Z,3.40
2023-01-17T04:04:28.467Z,4.00
2023-01-17T04:06:55.754Z,3.70
2023-01-17T04:09:22.912Z,3.17
2023-01-17T04:11:51.096Z,3.67
2023-01-17T04:14:18.307Z,3.73
2023-01-17T04:16:46.487Z,3.50
2023-01-17T04:19:14.107Z,3.43
2023-01-17T04:21:41.210Z,3.67
2023-01-17T04:24:08.574Z,3.40
2023-01-17T04:26:36.017Z,3.27
2023-01-17T04:29:03.501Z,3.30
2023-01-17T04:31:30.669Z,3.33
2023-01-17T04:33:57.727Z,3.00
2023-01-17T04:36:24.802Z,3.40
2023-01-17T04:38:51.983Z,3.27
2023-01-17T04:41:19.191Z,2.70
2023-01-17T04:43:46.349Z,2.60
2023-01-17T04:46:13.490Z,3.03
2023-01-17T04:48:40.658Z,2.90
2023-01-17T04:51:07.816Z,2.80
2023-01-17T04:53:35.089Z,3.10
2023-01-17T04:56:02.340Z,2.77
2023-01-17T04:58:30.441Z,3.47
2023-01-17T05:01:05.811Z,2.63
2023-01-17T05:03:33.611Z,2.70
2023-01-17T05:06:01.243Z,3.03
2023-01-17T05:08:28.845Z,2.43
2023-01-17T05:10:56.209Z,2.37
2023-01-17T05:13:23.373Z,2.30
2023-01-17T05:15:50.581Z,2.80
2023-01-17T05:18:18.973Z,2.53
2023-01-17T05:20:46.297Z,2.47
2023-01-17T05:23:13.474Z,2.20
2023-01-17T05:25:44.878Z,2.40
2023-01-17T05:28:15.085Z,2.00
2023-01-17T05:30:42.340Z,2.00
2023-01-17T05:33:10.421Z,2.00
2023-01-17T05:35:37.748Z,2.27
2023-01-17T05:38:05.331Z,2.00
2023-01-17T05:40:34.218Z,2.37
2023-01-17T05:43:03.925Z,2.23
2023-01-17T05:45:33.380Z,2.20
2023-01-17T05:48:01.111Z,1.93
2023-01-17T05:50:31.968Z,2.13
2023-01-17T05:53:02.375Z,2.40
2023-01-17T05:55:30.673Z,2.03
2023-01-17T05:57:58.801Z,2.10
2023-01-17T06:00:26.048Z,2.20
2023-01-17T06:02:54.879Z,2.30
2023-01-17T06:05:23.355Z,2.40
2023-01-17T06:07:50.687Z,2.20
2023-01-17T06:10:19.537Z,2.03
2023-01-17T06:12:47.918Z,2.50
2023-01-17T06:15:17.331Z,2.50
2023-01-17T06:17:44.476Z,2.27
2023-01-17T06:20:12.948Z,2.20
2023-01-17T06:22:40.129Z,2.13
2023-01-17T06:25:07.691Z,2.30
2023-01-17T06:27:35.034Z,2.20
2023-01-17T06:30:02.530Z,2.20
2023-01-17T06:32:29.754Z,2.37
2023-01-17T06:34:56.921Z,2.00
2023-01-17T06:37:24.636Z,1.90
2023-01-17T06:39:51.758Z,1.90
2023-01-17T06:42:18.964Z,2.23
2023-01-17T06:44:46.199Z,1.97
2023-01-17T06:47:13.299Z,2.13
2023-01-17T06:49:40.616Z,2.10
2023-01-17T06:52:07.843Z,2.20
2023-01-17T06:54:35.311Z,2.20
2023-01-17T06:57:02.428Z,2.40
2023-01-17T06:59:29.561Z,2.20
2023-01-17T07:01:56.848Z,2.30
2023-01-17T07:04:24.038Z,2.17
2023-01-17T07:06:51.210Z,2.00
2023-01-17T07:09:18.405Z,1.80
2023-01-17T07:11:45.599Z,2.30
2023-01-17T07:14:13.915Z,2.17
2023-01-17T07:16:45.409Z,2.10
2023-01-17T07:19:12.971Z,2.03
2023-01-17T07:21:40.611Z,2.40
2023-01-17T07:24:09.268Z,2.57
2023-01-17T07:26:40.326Z,2.60
2023-01-17T07:29:07.672Z,2.60
2023-01-17T07:31:36.874Z,2.60
2023-01-17T07:34:04.341Z,2.40
2023-01-17T07:36:31.539Z,2.70
2023-01-17T07:38:58.711Z,2.47
2023-01-17T07:41:26.050Z,2.43
2023-01-17T07:43:55.427Z,2.70
2023-01-17T07:46:23.482Z,2.57
2023-01-17T07:48:50.657Z,2.53
2023-01-17T07:51:18.101Z,2.77
2023-01-17T07:53:45.284Z,2.90
2023-01-17T07:56:12.492Z,2.53
2023-01-17T07:58:39.949Z,2.67
2023-01-17T08:01:10.454Z,3.03
2023-01-17T08:03:40.310Z,3.23
2023-01-17T08:06:23.457Z,3.53
2023-01-17T08:08:50.698Z,3.37
2023-01-17T08:11:17.901Z,3.50
2023-01-17T08:13:45.134Z,3.20
2023-01-17T08:16:12.934Z,2.90
2023-01-17T08:18:40.715Z,3.60
2023-01-17T08:21:16.957Z,3.70
2023-01-17T08:23:51.030Z,3.93
2023-01-17T08:26:22.742Z,4.20
2023-01-17T08:29:03.165Z,4.03
2023-01-17T08:31:33.104Z,4.27
2023-01-17T08:34:00.911Z,3.97
2023-01-17T08:36:29.009Z,4.00
2023-01-17T08:38:56.210Z,3.50
2023-01-17T08:41:24.567Z,4.30
2023-01-17T08:43:52.311Z,3.67
2023-01-17T08:46:19.897Z,3.53
2023-01-17T08:48:47.063Z,3.73
2023-01-17T08:51:14.381Z,3.27
2023-01-17T08:53:42.131Z,4.07
2023-01-17T08:56:10.129Z,3.77
2023-01-17T08:58:37.280Z,4.20
2023-01-17T09:01:06.343Z,4.90
2023-01-17T09:03:35.155Z,4.43
2023-01-17T09:06:09.108Z,5.00
2023-01-17T09:08:36.591Z,5.00
2023-01-17T09:11:15.322Z,5.17
2023-01-17T09:13:43.095Z,5.13
2023-01-17T09:16:11.083Z,5.40
2023-01-17T09:18:38.301Z,5.70
2023-01-17T09:21:13.614Z,5.23
2023-01-17T09:23:41.654Z,5.53
2023-01-17T09:26:28.145Z,4.90
2023-01-17T09:28:55.882Z,5.50
2023-01-17T09:31:24.607Z,5.77
2023-01-17T09:33:53.226Z,5.10
2023-01-17T09:36:20.795Z,5.83
2023-01-17T09:38:48.307Z,5.83
2023-01-17T09:41:32.579Z,5.97
2023-01-17T09:44:30.839Z,5.20
2023-01-17T09:47:08.005Z,4.87
2023-01-17T09:49:46.840Z,4.80
2023-01-17T09:52:17.792Z,4.60
2023-01-17T09:54:48.539Z,4.40
2023-01-17T09:57:35.015Z,4.73
2023-01-17T10:00:39.007Z,4.80
2023-01-17T10:03:21.413Z,4.57
2023-01-17T10:06:12.574Z,5.00
2023-01-17T10:09:04.366Z,4.70
2023-01-17T10:11:43.269Z,4.20
2023-01-17T10:14:46.234Z,5.00
2023-01-17T10:17:39.445Z,4.57
2023-01-17T10:20:34.362Z,4.00
2023-01-17T10:23:22.162Z,4.43
2023-01-17T10:25:51.510Z,4.30
2023-01-17T10:28:35.684Z,4.37
2023-01-17T10:31:13.737Z,4.40
2023-01-17T10:33:57.078Z,4.63
2023-01-17T10:36:26.982Z,4.00
2023-01-17T10:39:01.413Z,4.23
2023-01-17T10:41:41.418Z,4.10
2023-01-17T10:44:33.193Z,4.03
2023-01-17T10:47:12.742Z,4.90
2023-01-17T10:49:45.191Z,4.57
2023-01-17T10:52:25.873Z,4.83
2023-01-17T10:55:04.156Z,5.07
2023-01-17T10:57:41.717Z,4.40
2023-01-17T11:00:40.213Z,4.83
2023-01-17T11:03:09.936Z,4.53
2023-01-17T11:05:37.163Z,4.60
2023-01-17T11:08:09.795Z,4.57
2023-01-17T11:10:54.413Z,4.70
2023-01-17T11:13:37.068Z,4.70
2023-01-17T11:16:10.780Z,4.13
2023-01-17T11:18:40.030Z,4.50
2023-01-17T11:21:12.314Z,4.83
2023-01-17T11:23:45.265Z,4.40
2023-01-17T11:26:31.344Z,4.37
2023-01-17T11:29:27.586Z,4.33
2023-01-17T11:31:56.365Z,4.47
2023-01-17T11:34:25.988Z,4.13
2023-01-17T11:37:09.970Z,4.10
2023-01-17T11:39:37.244Z,4.90
2023-01-17T11:42:26.832Z,4.83
2023-01-17T11:44:55.136Z,4.60
2023-01-17T11:47:22.247Z,5.13
2023-01-17T11:49:50.271Z,4.73
2023-01-17T11:52:33.121Z,5.03
2023-01-17T11:55:00.735Z,4.57
2023-01-17T11:57:35.106Z,4.27
2023-01-17T12:00:24.106Z,4.77
2023-01-17T12:03:25.331Z,4.30
2023-01-17T12:06:05.383Z,4.07
2023-01-17T12:08:39.892Z,4.30
2023-01-17T12:11:19.092Z,4.30
2023-01-17T12:14:01.204Z,4.47
2023-01-17T12:16:56.300Z,4.50
2023-01-17T12:19:55.050Z,4.30
2023-01-17T12:22:35.990Z,3.87
2023-01-17T12:25:40.661Z,4.07
2023-01-17T12:28:22.170Z,3.80
2023-01-17T12:31:20.109Z,3.57
2023-01-17T12:34:18.381Z,3.67
2023-01-17T12:36:57.281Z,2.93
2023-01-17T12:39:40.131Z,3.00
2023-01-17T12:42:22.325Z,3.33
2023-01-17T12:44:58.452Z,3.33
2023-01-17T12:47:26.063Z,3.23
2023-01-17T12:50:15.380Z,3.27
2023-01-17T12:53:11.168Z,3.00
2023-01-17T12:56:03.293Z,2.93
2023-01-17T12:58:38.807Z,2.40
2023-01-17T13:01:17.663Z,2.90
2023-01-17T13:04:00.407Z,2.57
2023-01-17T13:06:53.738Z,2.80
2023-01-17T13:09:23.787Z,2.70
2023-01-17T13:12:17.066Z,2.40
2023-01-17T13:14:46.774Z,2.30
2023-01-17T13:17:34.216Z,2.87
2023-01-17T13:20:22.939Z,2.27
2023-01-17T13:22:51.726Z,2.07
2023-01-17T13:25:50.772Z,2.37
2023-01-17T13:28:36.946Z,2.33
2023-01-17T13:31:25.790Z,2.20
2023-01-17T13:34:08.023Z,2.20
2023-01-17T13:37:10.274Z,2.53
2023-01-17T13:39:49.086Z,2.23
2023-01-17T13:42:44.005Z,1.83
2023-01-17T13:45:24.704Z,2.03
2023-01-17T13:47:53.084Z,1.80
2023-01-17T13:50:41.184Z,1.60
2023-01-17T13:53:39.520Z,1.80
2023-01-17T13:56:15.893Z,1.83
2023-01-17T13:58:50.400Z,1.63
2023-01-17T14:01:23.706Z,1.90
2023-01-17T14:03:53.723Z,1.70
2023-01-17T14:06:36.395Z,1.63
2023-01-17T14:09:24.589Z,1.50
2023-01-17T14:12:21.422Z,1.70
2023-01-17T14:14:52.182Z,1.30
2023-01-17T14:17:31.250Z,1.27
2023-01-17T14:20:05.643Z,1.30
2023-01-17T14:22:39.250Z,1.50
2023-01-17T14:25:12.483Z,1.37
2023-01-17T14:27:42.703Z,1.50
2023-01-17T14:30:22.244Z,1.50
2023-01-17T14:33:01.870Z,1.20
2023-01-17T14:35:30.481Z,1.50
2023-01-17T14:37:58.090Z,1.33
2023-01-17T14:40:27.630Z,1.53
2023-01-17T14:43:01.636Z,1.30
2023-01-17T14:45:31.885Z,1.50
2023-01-17T14:48:01.791Z,1.37
2023-01-17T14:50:35.630Z,1.60
2023-01-17T14:53:08.575Z,1.40
2023-01-17T14:55:36.089Z,1.30
2023-01-17T14:58:03.996Z,1.40
2023-01-17T15:00:33.688Z,1.33
2023-01-17T15:03:02.408Z,1.70
2023-01-17T15:05:30.363Z,1.70
2023-01-17T15:07:58.644Z,1.37
2023-01-17T15:10:30.621Z,1.60
2023-01-17T15:13:06.336Z,1.60
2023-01-17T15:15:39.866Z,1.67
2023-01-17T15:18:19.619Z,1.47
2023-01-17T15:21:00.111Z,1.50
2023-01-17T15:23:34.515Z,1.40
2023-01-17T15:26:03.830Z,1.80
2023-01-17T15:28:32.797Z,1.70
2023-01-17T15:31:38.044Z,1.70
2023-01-17T15:34:08.211Z,1.90
2023-01-17T15:36:36.095Z,2.00
2023-01-17T15:39:19.265Z,1.73
2023-01-17T15:41:48.255Z,1.90
2023-01-17T15:44:48.088Z,1.80
2023-01-17T15:47:35.694Z,1.70
2023-01-17T15:50:26.836Z,1.87
2023-01-17T15:53:04.786Z,2.00
2023-01-17T15:55:39.600Z,2.10
2023-01-17T15:58:24.888Z,2.20
2023-01-17T16:00:52.425Z,2.00
2023-01-17T16:03:30.440Z,2.30
2023-01-17T16:06:00.427Z,2.20
2023-01-17T16:08:33.254Z,2.20
2023-01-17T16:11:06.397Z,2.47
2023-01-17T16:13:38.693Z,2.10
2023-01-17T16:16:11.988Z,2.10
2023-01-17T16:18:40.515Z,2.10
2023-01-17T16:21:17.877Z,2.10
2023-01-17T16:23:45.863Z,2.10
2023-01-17T16:26:13.151Z,2.10
2023-01-17T16:28:40.787Z,2.20
2023-01-17T16:31:08.103Z,2.00
2023-01-17T16:33:35.568Z,2.20
2023-01-17T16:36:02.734Z,2.43
2023-01-17T16:38:30.503Z,2.23
2023-01-17T16:40:57.804Z,2.00
2023-01-17T16:43:25.066Z,2.00
2023-01-17T16:45:54.185Z,2.00
2023-01-17T16:48:22.077Z,2.20
2023-01-17T16:50:52.387Z,2.00
2023-01-17T16:53:25.466Z,2.10
2023-01-17T16:55:58.980Z,2.00
2023-01-17T16:58:26.135Z,2.30
2023-01-17T17:00:55.464Z,2.00
2023-01-17T17:03:22.949Z,2.40
2023-01-17T17:06:00.831Z,2.30
2023-01-17T17:08:31.351Z,2.23
2023-01-17T17:11:19.977Z,2.13
2023-01-17T17:13:50.008Z,2.10
2023-01-17T17:16:23.878Z,2.20
2023-01-17T17:18:56.755Z,2.50
2023-01-17T17:21:24.269Z,2.47
2023-01-17T17:23:57.108Z,2.20
2023-01-17T17:26:31.077Z,2.30
2023-01-17T17:28:58.329Z,2.20
2023-01-17T17:31:25.473Z,2.53
2023-01-17T17:33:53.312Z,2.17
2023-01-17T17:36:20.478Z,1.73
2023-01-17T17:38:53.630Z,2.57
2023-01-17T17:41:23.921Z,2.40
2023-01-17T17:43:52.360Z,2.23
2023-01-17T17:46:21.262Z,2.20
2023-01-17T17:48:49.287Z,2.07
2023-01-17T17:51:46.109Z,2.57
2023-01-17T17:54:15.420Z,2.30
2023-01-17T17:56:49.455Z,2.10
2023-01-17T17:59:20.809Z,2.50
2023-01-17T18:01:48.609Z,2.20
2023-01-17T18:04:15.993Z,2.03
2023-01-17T18:06:44.313Z,7.07
2023-01-17T18:09:12.584Z,3.37
2023-01-17T18:11:42.503Z,2.10
2023-01-17T18:14:13.230Z,2.40
2023-01-17T18:16:43.766Z,2.63
2023-01-17T18:19:20.744Z,4.63
2023-01-17T18:21:50.732Z,3.03
2023-01-17T18:24:21.541Z,1.90
2023-01-17T18:26:54.202Z,2.43
2023-01-17T18:29:22.704Z,6.20
2023-01-17T18:31:52.493Z,2.03
2023-01-17T18:34:24.536Z,2.03
2023-01-17T18:36:52.550Z,2.33
2023-01-17T18:39:26.227Z,2.27
2023-01-17T18:41:55.542Z,2.23
2023-01-17T18:44:23.613Z,2.30
2023-01-17T18:46:53.199Z,4.00
2023-01-17T18:49:21.151Z,2.20
2023-01-17T18:51:52.023Z,2.40
2023-01-17T18:54:20.868Z,2.73
2023-01-17T18:56:48.621Z,2.60
2023-01-17T18:59:20.829Z,2.47
2023-01-17T19:01:51.498Z,2.30
2023-01-17T19:04:56.903Z,2.37
2023-01-17T19:07:31.163Z,2.13
2023-01-17T19:09:59.204Z,2.83
2023-01-17T19:12:26.606Z,2.20
2023-01-17T19:14:54.124Z,2.50
2023-01-17T19:17:22.144Z,2.40
2023-01-17T19:19:49.765Z,3.83
2023-01-17T19:22:17.949Z,3.00
2023-01-17T19:24:45.888Z,2.57
2023-01-17T19:27:14.301Z,2.90
2023-01-17T19:29:41.449Z,2.43
2023-01-17T19:32:09.882Z,2.90
2023-01-17T19:34:37.225Z,3.30
2023-01-17T19:37:06.199Z,3.77
2023-01-17T19:39:33.517Z,3.30
2023-01-17T19:42:00.593Z,3.30
2023-01-17T19:44:28.014Z,3.33
2023-01-17T19:46:56.670Z,3.50
2023-01-17T19:49:24.176Z,3.70
2023-01-17T19:51:52.664Z,3.90
2023-01-17T19:54:19.985Z,3.83
2023-01-17T19:56:47.256Z,4.33
2023-01-17T19:59:15.528Z,4.70
2023-01-17T20:01:43.592Z,5.20
2023-01-17T20:04:13.009Z,5.73
2023-01-17T20:06:40.328Z,5.73
2023-01-17T20:09:07.556Z,5.47
2023-01-17T20:11:35.013Z,5.97
2023-01-17T20:14:02.623Z,6.13
2023-01-17T20:16:31.716Z,6.57
2023-01-17T20:19:02.689Z,6.50
2023-01-17T20:21:31.751Z,7.17
2023-01-17T20:24:00.673Z,7.60
2023-01-17T20:26:35.158Z,7.30
2023-01-17T20:29:14.915Z,6.17
2023-01-17T20:31:43.477Z,7.00
2023-01-17T20:34:13.193Z,7.50
2023-01-17T20:36:42.194Z,7.83
2023-01-17T20:39:11.672Z,7.57
2023-01-17T20:41:43.663Z,8.63
2023-01-17T20:44:15.269Z,7.77
2023-01-17T20:46:43.433Z,8.80
2023-01-17T20:49:15.346Z,9.37
2023-01-17T20:51:44.524Z,8.57
2023-01-17T20:54:18.354Z,9.40
2023-01-17T20:56:47.624Z,9.90
2023-01-17T20:59:22.364Z,10.03
2023-01-17T21:01:50.589Z,9.43
2023-01-17T21:04:24.042Z,10.10
2023-01-17T21:06:53.029Z,9.70
2023-01-17T21:09:21.489Z,10.30
2023-01-17T21:11:49.416Z,11.30
2023-01-17T21:14:16.763Z,10.43
2023-01-17T21:16:44.875Z,11.43
2023-01-17T21:19:15.130Z,11.07
2023-01-17T21:21:42.656Z,10.70
2023-01-17T21:24:19.084Z,10.83
2023-01-17T21:26:47.286Z,10.30
2023-01-17T21:29:16.408Z,11.10
2023-01-17T21:31:43.812Z,11.37
2023-01-17T21:34:14.433Z,10.30
2023-01-17T21:36:43.601Z,9.37
2023-01-17T21:39:18.821Z,9.30
2023-01-17T21:41:49.679Z,8.37
2023-01-17T21:44:20.139Z,8.00
2023-01-17T21:46:47.997Z,8.27
2023-01-17T21:49:15.619Z,7.63
2023-01-17T21:51:55.151Z,8.10
2023-01-17T21:54:44.561Z,7.97
2023-01-17T21:57:31.947Z,7.10
2023-01-17T21:59:59.295Z,8.23
2023-01-17T22:02:26.865Z,9.60
2023-01-17T22:04:56.969Z,10.03
2023-01-17T22:07:27.265Z,9.33
2023-01-17T22:09:54.898Z,10.70
2023-01-17T22:12:22.263Z,12.37
2023-01-17T22:14:49.608Z,12.07
2023-01-17T22:17:16.774Z,13.10
2023-01-17T22:19:46.064Z,12.90
2023-01-17T22:22:13.818Z,13.63
2023-01-17T22:24:41.010Z,15.37
2023-01-17T22:27:10.047Z,14.67
2023-01-17T22:29:37.813Z,16.20
2023-01-17T22:32:05.360Z,16.17
2023-01-17T22:34:32.688Z,16.40
2023-01-17T22:37:00.645Z,15.47
2023-01-17T22:39:27.739Z,17.10
2023-01-17T22:41:54.877Z,16.93
2023-01-17T22:44:22.154Z,17.60
2023-01-17T22:46:49.427Z,17.43
2023-01-17T22:49:17.265Z,17.37
2023-01-17T22:51:45.000Z,17.13
2023-01-17T22:54:12.623Z,16.77
2023-01-17T22:56:39.865Z,15.53
2023-01-17T22:59:11.672Z,17.03
2023-01-17T23:01:43.013Z,17.53
2023-01-17T23:04:14.085Z,17.10
2023-01-17T23:06:42.076Z,17.60
2023-01-17T23:09:12.966Z,18.80
2023-01-17T23:11:43.468Z,18.07
2023-01-17T23:14:19.798Z,20.33
2023-01-17T23:17:11.000Z,19.73
2023-01-17T23:19:39.197Z,19.63
2023-01-17T23:22:21.681Z,18.70
2023-01-17T23:24:54.439Z,19.43
2023-01-17T23:27:58.354Z,19.10
2023-01-17T23:30:34.815Z,18.97
2023-01-17T23:33:04.714Z,18.60
2023-01-17T23:35:34.471Z,19.80
2023-01-17T23:38:20.150Z,19.97
2023-01-17T23:41:07.926Z,19.90
2023-01-17T23:43:36.374Z,19.40
2023-01-17T23:46:05.124Z,20.97
2023-01-17T23:48:32.495Z,21.37
2023-01-17T23:51:11.178Z,20.37
2023-01-17T23:53:39.379Z,23.80
2023-01-17T23:56:22.494Z,21.57
2023-01-17T23:58:49.866Z,21.90
